sensor_id;sensor_type;location;lat;lon;timestamp;P1;durP1;ratioP1;P2;durP2;ratioP2
69900;SDS011;57183;50.930;5.406;2022-12-16T00:01:20;94.50;;;47.33;;
69900;SDS011;57183;50.930;5.406;2022-12-16T00:03:49;88.32;;;44.90;;
69900;SDS011;57183;50.930;5.406;2022-12-16T00:06:17;98.22;;;44.33;;
69900;SDS011;57183;50.930;5.406;2022-12-16T00:08:43;93.05;;;46.15;;
69900;SDS011;57183;50.930;5.406;2022-12-16T00:11:09;114.93;;;57.67;;
69900;SDS011;57183;50.930;5.406;2022-12-16T00:13:35;111.22;;;53.45;;
69900;SDS011;57183;50.930;5.406;2022-12-16T00:16:05;119.78;;;54.97;;
69900;SDS011;57183;50.930;5.406;2022-12-16T00:18:32;115.38;;;54.90;;
69900;SDS011;57183;50.930;5.406;2022-12-16T00:20:57;126.88;;;58.08;;
69900;SDS011;57183;50.930;5.406;2022-12-16T00:23:23;130.85;;;55.35;;
69900;SDS011;57183;50.930;5.406;2022-12-16T00:25:49;115.70;;;54.65;;
69900;SDS011;57183;50.930;5.406;2022-12-16T00:28:15;109.43;;;51.55;;
69900;SDS011;57183;50.930;5.406;2022-12-16T00:30:42;96.25;;;46.47;;
69900;SDS011;57183;50.930;5.406;2022-12-16T00:33:08;96.55;;;47.33;;
69900;SDS011;57183;50.930;5.406;2022-12-16T00:35:34;96.38;;;48.10;;
69900;SDS011;57183;50.930;5.406;2022-12-16T00:38:00;99.10;;;49.47;;
69900;SDS011;57183;50.930;5.406;2022-12-16T00:40:26;96.22;;;49.25;;
69900;SDS011;57183;50.930;5.406;2022-12-16T00:42:51;94.38;;;47.70;;
69900;SDS011;57183;50.930;5.406;2022-12-16T00:45:17;91.65;;;46.35;;
69900;SDS011;57183;50.930;5.406;2022-12-16T00:47:43;102.03;;;51.92;;
69900;SDS011;57183;50.930;5.406;2022-12-16T00:50:09;98.50;;;50.05;;
69900;SDS011;57183;50.930;5.406;2022-12-16T00:52:35;91.32;;;47.10;;
69900;SDS011;57183;50.930;5.406;2022-12-16T00:55:01;92.18;;;45.88;;
69900;SDS011;57183;50.930;5.406;2022-12-16T00:57:27;84.00;;;44.22;;
69900;SDS011;57183;50.930;5.406;2022-12-16T00:59:53;92.20;;;47.35;;
69900;SDS011;57183;50.930;5.406;2022-12-16T01:02:19;86.50;;;45.35;;
69900;SDS011;57183;50.930;5.406;2022-12-16T01:04:44;89.03;;;44.90;;
69900;SDS011;57183;50.930;5.406;2022-12-16T01:07:10;90.80;;;43.97;;
69900;SDS011;57183;50.930;5.406;2022-12-16T01:09:35;89.20;;;45.50;;
69900;SDS011;57183;50.930;5.406;2022-12-16T01:12:01;85.30;;;41.50;;
69900;SDS011;57183;50.930;5.406;2022-12-16T01:14:27;92.00;;;44.22;;
69900;SDS011;57183;50.930;5.406;2022-12-16T01:16:52;96.18;;;44.63;;
69900;SDS011;57183;50.930;5.406;2022-12-16T01:19:18;87.18;;;42.95;;
69900;SDS011;57183;50.930;5.406;2022-12-16T01:21:44;72.22;;;38.03;;
69900;SDS011;57183;50.930;5.406;2022-12-16T01:24:10;84.00;;;40.88;;
69900;SDS011;57183;50.930;5.406;2022-12-16T01:26:35;77.38;;;39.10;;
69900;SDS011;57183;50.930;5.406;2022-12-16T01:29:03;75.25;;;38.63;;
69900;SDS011;57183;50.930;5.406;2022-12-16T01:31:29;72.25;;;39.67;;
69900;SDS011;57183;50.930;5.406;2022-12-16T01:33:54;85.45;;;37.05;;
69900;SDS011;57183;50.930;5.406;2022-12-16T01:36:20;62.47;;;35.60;;
69900;SDS011;57183;50.930;5.406;2022-12-16T01:38:46;70.15;;;38.08;;
69900;SDS011;57183;50.930;5.406;2022-12-16T01:41:12;70.10;;;36.83;;
69900;SDS011;57183;50.930;5.406;2022-12-16T01:43:40;68.97;;;35.85;;
69900;SDS011;57183;50.930;5.406;2022-12-16T01:46:08;63.67;;;36.50;;
69900;SDS011;57183;50.930;5.406;2022-12-16T01:53:47;63.55;;;31.83;;
69900;SDS011;57183;50.930;5.406;2022-12-16T01:56:17;60.83;;;34.50;;
69900;SDS011;57183;50.930;5.406;2022-12-16T01:58:45;71.82;;;38.58;;
69900;SDS011;57183;50.930;5.406;2022-12-16T02:01:12;65.78;;;36.35;;
69900;SDS011;57183;50.930;5.406;2022-12-16T02:03:40;74.18;;;36.60;;
69900;SDS011;57183;50.930;5.406;2022-12-16T02:06:07;68.60;;;36.72;;
69900;SDS011;57183;50.930;5.406;2022-12-16T02:08:32;67.65;;;35.55;;
69900;SDS011;57183;50.930;5.406;2022-12-16T02:13:51;73.22;;;36.53;;
69900;SDS011;57183;50.930;5.406;2022-12-16T02:24:22;68.72;;;35.33;;
69900;SDS011;57183;50.930;5.406;2022-12-16T02:27:04;68.00;;;35.75;;
69900;SDS011;57183;50.930;5.406;2022-12-16T02:32:59;67.03;;;34.25;;
69900;SDS011;57183;50.930;5.406;2022-12-16T02:35:54;62.53;;;34.17;;
69900;SDS011;57183;50.930;5.406;2022-12-16T02:41:19;57.65;;;32.75;;
69900;SDS011;57183;50.930;5.406;2022-12-16T02:46:21;58.95;;;32.13;;
69900;SDS011;57183;50.930;5.406;2022-12-16T02:48:50;58.08;;;32.50;;
69900;SDS011;57183;50.930;5.406;2022-12-16T02:51:16;64.20;;;34.30;;
69900;SDS011;57183;50.930;5.406;2022-12-16T02:53:42;61.90;;;34.00;;
69900;SDS011;57183;50.930;5.406;2022-12-16T03:01:57;68.85;;;33.20;;
69900;SDS011;57183;50.930;5.406;2022-12-16T03:04:41;64.93;;;33.88;;
69900;SDS011;57183;50.930;5.406;2022-12-16T03:07:13;69.28;;;33.05;;
69900;SDS011;57183;50.930;5.406;2022-12-16T03:09:41;61.35;;;32.58;;
69900;SDS011;57183;50.930;5.406;2022-12-16T03:12:11;58.05;;;32.45;;
69900;SDS011;57183;50.930;5.406;2022-12-16T03:14:41;64.53;;;34.03;;
69900;SDS011;57183;50.930;5.406;2022-12-16T03:17:10;57.55;;;32.22;;
69900;SDS011;57183;50.930;5.406;2022-12-16T03:19:38;67.50;;;34.55;;
69900;SDS011;57183;50.930;5.406;2022-12-16T03:22:08;61.20;;;32.22;;
69900;SDS011;57183;50.930;5.406;2022-12-16T03:24:37;64.55;;;32.78;;
69900;SDS011;57183;50.930;5.406;2022-12-16T03:32:46;60.03;;;31.90;;
69900;SDS011;57183;50.930;5.406;2022-12-16T03:35:27;58.10;;;31.17;;
69900;SDS011;57183;50.930;5.406;2022-12-16T03:38:09;57.60;;;30.35;;
69900;SDS011;57183;50.930;5.406;2022-12-16T03:40:36;59.45;;;31.00;;
69900;SDS011;57183;50.930;5.406;2022-12-16T03:43:05;64.78;;;32.20;;
69900;SDS011;57183;50.930;5.406;2022-12-16T03:45:34;58.03;;;31.75;;
69900;SDS011;57183;50.930;5.406;2022-12-16T03:48:04;56.95;;;31.00;;
69900;SDS011;57183;50.930;5.406;2022-12-16T03:50:32;58.72;;;31.38;;
69900;SDS011;57183;50.930;5.406;2022-12-16T03:52:59;64.03;;;31.67;;
69900;SDS011;57183;50.930;5.406;2022-12-16T03:55:26;56.28;;;31.80;;
69900;SDS011;57183;50.930;5.406;2022-12-16T03:57:52;62.33;;;33.00;;
69900;SDS011;57183;50.930;5.406;2022-12-16T04:00:18;60.05;;;31.10;;
69900;SDS011;57183;50.930;5.406;2022-12-16T04:02:45;57.28;;;31.83;;
69900;SDS011;57183;50.930;5.406;2022-12-16T04:05:11;57.25;;;31.63;;
69900;SDS011;57183;50.930;5.406;2022-12-16T04:07:37;61.92;;;33.05;;
69900;SDS011;57183;50.930;5.406;2022-12-16T04:10:03;63.95;;;31.73;;
69900;SDS011;57183;50.930;5.406;2022-12-16T04:12:29;70.30;;;33.47;;
69900;SDS011;57183;50.930;5.406;2022-12-16T04:15:13;37.67;;;22.77;;
69900;SDS011;57183;50.930;5.406;2022-12-16T04:17:57;64.32;;;34.03;;
69900;SDS011;57183;50.930;5.406;2022-12-16T04:20:43;55.63;;;31.40;;
69900;SDS011;57183;50.930;5.406;2022-12-16T04:23:36;56.22;;;31.40;;
69900;SDS011;57183;50.930;5.406;2022-12-16T04:26:29;61.13;;;32.13;;
69900;SDS011;57183;50.930;5.406;2022-12-16T04:28:55;57.78;;;31.42;;
69900;SDS011;57183;50.930;5.406;2022-12-16T04:31:21;64.28;;;30.52;;
69900;SDS011;57183;50.930;5.406;2022-12-16T04:33:46;55.40;;;30.45;;
69900;SDS011;57183;50.930;5.406;2022-12-16T04:36:31;56.38;;;31.40;;
69900;SDS011;57183;50.930;5.406;2022-12-16T04:39:16;63.25;;;31.55;;
69900;SDS011;57183;50.930;5.406;2022-12-16T04:42:00;45.65;;;21.80;;
69900;SDS011;57183;50.930;5.406;2022-12-16T04:44:44;57.78;;;31.80;;
69900;SDS011;57183;50.930;5.406;2022-12-16T04:47:28;55.88;;;31.05;;
69900;SDS011;57183;50.930;5.406;2022-12-16T04:50:12;59.55;;;32.40;;
69900;SDS011;57183;50.930;5.406;2022-12-16T04:52:57;65.57;;;30.33;;
69900;SDS011;57183;50.930;5.406;2022-12-16T04:55:41;49.15;;;28.35;;
69900;SDS011;57183;50.930;5.406;2022-12-16T04:58:26;45.92;;;23.52;;
69900;SDS011;57183;50.930;5.406;2022-12-16T05:01:12;52.20;;;30.50;;
69900;SDS011;57183;50.930;5.406;2022-12-16T05:03:56;43.38;;;22.02;;
69900;SDS011;57183;50.930;5.406;2022-12-16T05:06:40;58.33;;;30.00;;
69900;SDS011;57183;50.930;5.406;2022-12-16T05:09:24;61.72;;;29.63;;
69900;SDS011;57183;50.930;5.406;2022-12-16T05:12:08;56.35;;;31.00;;
69900;SDS011;57183;50.930;5.406;2022-12-16T05:14:52;61.08;;;30.08;;
69900;SDS011;57183;50.930;5.406;2022-12-16T05:17:36;53.30;;;31.98;;
69900;SDS011;57183;50.930;5.406;2022-12-16T05:20:20;61.20;;;31.35;;
69900;SDS011;57183;50.930;5.406;2022-12-16T05:23:05;40.53;;;22.23;;
69900;SDS011;57183;50.930;5.406;2022-12-16T05:25:49;64.90;;;30.20;;
69900;SDS011;57183;50.930;5.406;2022-12-16T05:28:33;56.63;;;29.92;;
69900;SDS011;57183;50.930;5.406;2022-12-16T05:31:17;53.33;;;30.27;;
69900;SDS011;57183;50.930;5.406;2022-12-16T05:34:01;58.38;;;31.17;;
69900;SDS011;57183;50.930;5.406;2022-12-16T05:36:45;54.13;;;29.80;;
69900;SDS011;57183;50.930;5.406;2022-12-16T05:39:29;62.95;;;29.77;;
69900;SDS011;57183;50.930;5.406;2022-12-16T05:42:13;61.53;;;30.35;;
69900;SDS011;57183;50.930;5.406;2022-12-16T05:44:58;62.20;;;30.73;;
69900;SDS011;57183;50.930;5.406;2022-12-16T05:47:42;53.58;;;28.85;;
69900;SDS011;57183;50.930;5.406;2022-12-16T05:50:26;43.90;;;22.67;;
69900;SDS011;57183;50.930;5.406;2022-12-16T05:53:10;57.33;;;29.48;;
69900;SDS011;57183;50.930;5.406;2022-12-16T05:55:54;52.25;;;30.35;;
69900;SDS011;57183;50.930;5.406;2022-12-16T05:58:39;57.30;;;29.30;;
69900;SDS011;57183;50.930;5.406;2022-12-16T06:01:23;56.80;;;30.70;;
69900;SDS011;57183;50.930;5.406;2022-12-16T06:04:06;55.63;;;30.33;;
69900;SDS011;57183;50.930;5.406;2022-12-16T06:06:51;34.22;;;22.67;;
69900;SDS011;57183;50.930;5.406;2022-12-16T06:09:36;61.75;;;33.03;;
69900;SDS011;57183;50.930;5.406;2022-12-16T06:12:20;58.40;;;32.58;;
69900;SDS011;57183;50.930;5.406;2022-12-16T06:15:04;53.55;;;30.35;;
69900;SDS011;57183;50.930;5.406;2022-12-16T06:17:49;38.95;;;22.20;;
69900;SDS011;57183;50.930;5.406;2022-12-16T06:20:33;61.03;;;32.23;;
69900;SDS011;57183;50.930;5.406;2022-12-16T06:23:18;53.70;;;31.58;;
69900;SDS011;57183;50.930;5.406;2022-12-16T06:26:03;55.47;;;31.10;;
69900;SDS011;57183;50.930;5.406;2022-12-16T06:28:47;64.63;;;32.25;;
69900;SDS011;57183;50.930;5.406;2022-12-16T06:31:51;56.85;;;31.63;;
69900;SDS011;57183;50.930;5.406;2022-12-16T06:34:35;60.40;;;31.77;;
69900;SDS011;57183;50.930;5.406;2022-12-16T06:37:20;64.00;;;32.10;;
69900;SDS011;57183;50.930;5.406;2022-12-16T06:40:04;37.83;;;23.10;;
69900;SDS011;57183;50.930;5.406;2022-12-16T06:42:49;55.10;;;32.40;;
69900;SDS011;57183;50.930;5.406;2022-12-16T06:45:33;50.05;;;30.10;;
69900;SDS011;57183;50.930;5.406;2022-12-16T06:48:17;53.45;;;29.98;;
69900;SDS011;57183;50.930;5.406;2022-12-16T06:51:01;59.47;;;32.35;;
69900;SDS011;57183;50.930;5.406;2022-12-16T06:53:45;53.72;;;30.50;;
69900;SDS011;57183;50.930;5.406;2022-12-16T06:56:29;54.38;;;31.00;;
69900;SDS011;57183;50.930;5.406;2022-12-16T06:59:13;61.13;;;31.13;;
69900;SDS011;57183;50.930;5.406;2022-12-16T07:01:57;54.97;;;30.48;;
69900;SDS011;57183;50.930;5.406;2022-12-16T07:04:42;55.78;;;30.10;;
69900;SDS011;57183;50.930;5.406;2022-12-16T07:07:26;55.42;;;31.08;;
69900;SDS011;57183;50.930;5.406;2022-12-16T07:10:10;53.33;;;28.80;;
69900;SDS011;57183;50.930;5.406;2022-12-16T07:12:58;62.70;;;30.25;;
69900;SDS011;57183;50.930;5.406;2022-12-16T07:15:43;56.28;;;28.65;;
69900;SDS011;57183;50.930;5.406;2022-12-16T07:18:28;53.47;;;30.13;;
69900;SDS011;57183;50.930;5.406;2022-12-16T07:21:12;57.63;;;31.75;;
69900;SDS011;57183;50.930;5.406;2022-12-16T07:23:57;61.05;;;31.88;;
69900;SDS011;57183;50.930;5.406;2022-12-16T07:26:41;58.27;;;33.23;;
69900;SDS011;57183;50.930;5.406;2022-12-16T07:29:25;61.08;;;32.58;;
69900;SDS011;57183;50.930;5.406;2022-12-16T07:32:09;63.10;;;33.00;;
69900;SDS011;57183;50.930;5.406;2022-12-16T07:34:53;63.00;;;33.63;;
69900;SDS011;57183;50.930;5.406;2022-12-16T07:37:38;65.50;;;35.42;;
69900;SDS011;57183;50.930;5.406;2022-12-16T07:40:22;65.55;;;35.25;;
69900;SDS011;57183;50.930;5.406;2022-12-16T07:43:06;60.30;;;34.70;;
69900;SDS011;57183;50.930;5.406;2022-12-16T07:45:50;60.20;;;34.97;;
69900;SDS011;57183;50.930;5.406;2022-12-16T07:48:34;52.35;;;32.78;;
69900;SDS011;57183;50.930;5.406;2022-12-16T07:51:18;56.28;;;32.83;;
69900;SDS011;57183;50.930;5.406;2022-12-16T07:54:02;62.00;;;34.75;;
69900;SDS011;57183;50.930;5.406;2022-12-16T07:56:47;44.17;;;24.88;;
69900;SDS011;57183;50.930;5.406;2022-12-16T07:59:31;64.47;;;34.50;;
69900;SDS011;57183;50.930;5.406;2022-12-16T08:02:15;69.70;;;36.80;;
69900;SDS011;57183;50.930;5.406;2022-12-16T08:04:59;70.00;;;38.08;;
69900;SDS011;57183;50.930;5.406;2022-12-16T08:07:43;63.20;;;36.20;;
69900;SDS011;57183;50.930;5.406;2022-12-16T08:10:27;68.57;;;38.03;;
69900;SDS011;57183;50.930;5.406;2022-12-16T08:13:12;78.90;;;39.58;;
69900;SDS011;57183;50.930;5.406;2022-12-16T08:15:55;63.90;;;35.30;;
69900;SDS011;57183;50.930;5.406;2022-12-16T08:18:40;66.45;;;34.38;;
69900;SDS011;57183;50.930;5.406;2022-12-16T08:21:34;56.53;;;33.90;;
69900;SDS011;57183;50.930;5.406;2022-12-16T08:24:18;59.05;;;34.15;;
69900;SDS011;57183;50.930;5.406;2022-12-16T08:27:02;74.25;;;34.53;;
69900;SDS011;57183;50.930;5.406;2022-12-16T08:29:47;56.40;;;32.53;;
69900;SDS011;57183;50.930;5.406;2022-12-16T08:32:31;44.90;;;25.05;;
69900;SDS011;57183;50.930;5.406;2022-12-16T08:35:16;58.92;;;32.50;;
69900;SDS011;57183;50.930;5.406;2022-12-16T08:38:00;61.83;;;34.00;;
69900;SDS011;57183;50.930;5.406;2022-12-16T08:40:44;61.00;;;32.88;;
69900;SDS011;57183;50.930;5.406;2022-12-16T08:43:32;108.15;;;44.47;;
69900;SDS011;57183;50.930;5.406;2022-12-16T08:46:17;94.88;;;44.30;;
69900;SDS011;57183;50.930;5.406;2022-12-16T08:49:03;73.50;;;36.80;;
69900;SDS011;57183;50.930;5.406;2022-12-16T08:51:47;58.00;;;33.03;;
69900;SDS011;57183;50.930;5.406;2022-12-16T08:54:32;62.88;;;31.95;;
69900;SDS011;57183;50.930;5.406;2022-12-16T08:57:16;59.20;;;33.75;;
69900;SDS011;57183;50.930;5.406;2022-12-16T09:00:01;57.30;;;32.23;;
69900;SDS011;57183;50.930;5.406;2022-12-16T09:02:46;56.08;;;32.70;;
69900;SDS011;57183;50.930;5.406;2022-12-16T09:05:30;55.78;;;33.00;;
69900;SDS011;57183;50.930;5.406;2022-12-16T09:08:14;61.03;;;33.28;;
69900;SDS011;57183;50.930;5.406;2022-12-16T09:10:59;60.78;;;32.80;;
69900;SDS011;57183;50.930;5.406;2022-12-16T09:13:44;56.78;;;32.20;;
69900;SDS011;57183;50.930;5.406;2022-12-16T09:16:28;60.67;;;34.10;;
69900;SDS011;57183;50.930;5.406;2022-12-16T09:19:12;62.70;;;33.77;;
69900;SDS011;57183;50.930;5.406;2022-12-16T09:21:56;68.63;;;36.55;;
69900;SDS011;57183;50.930;5.406;2022-12-16T09:25:00;56.90;;;33.00;;
69900;SDS011;57183;50.930;5.406;2022-12-16T09:27:48;63.92;;;33.80;;
69900;SDS011;57183;50.930;5.406;2022-12-16T09:30:32;62.97;;;36.63;;
69900;SDS011;57183;50.930;5.406;2022-12-16T09:33:16;55.22;;;32.65;;
69900;SDS011;57183;50.930;5.406;2022-12-16T09:36:01;54.97;;;33.10;;
69900;SDS011;57183;50.930;5.406;2022-12-16T09:38:53;63.13;;;33.40;;
69900;SDS011;57183;50.930;5.406;2022-12-16T09:42:00;60.72;;;32.22;;
69900;SDS011;57183;50.930;5.406;2022-12-16T09:50:56;54.85;;;32.22;;
69900;SDS011;57183;50.930;5.406;2022-12-16T09:53:45;60.78;;;35.25;;
69900;SDS011;57183;50.930;5.406;2022-12-16T09:56:33;58.30;;;33.25;;
69900;SDS011;57183;50.930;5.406;2022-12-16T09:59:21;59.72;;;32.67;;
69900;SDS011;57183;50.930;5.406;2022-12-16T10:02:11;53.15;;;32.75;;
69900;SDS011;57183;50.930;5.406;2022-12-16T10:04:56;58.95;;;34.08;;
69900;SDS011;57183;50.930;5.406;2022-12-16T10:07:41;66.80;;;33.80;;
69900;SDS011;57183;50.930;5.406;2022-12-16T10:10:47;67.95;;;33.67;;
69900;SDS011;57183;50.930;5.406;2022-12-16T10:13:54;69.30;;;34.20;;
69900;SDS011;57183;50.930;5.406;2022-12-16T10:16:53;75.10;;;34.55;;
69900;SDS011;57183;50.930;5.406;2022-12-16T10:20:03;75.50;;;34.20;;
69900;SDS011;57183;50.930;5.406;2022-12-16T10:29:38;68.10;;;31.60;;
69900;SDS011;57183;50.930;5.406;2022-12-16T10:32:41;66.50;;;34.63;;
69900;SDS011;57183;50.930;5.406;2022-12-16T10:35:33;66.32;;;34.22;;
69900;SDS011;57183;50.930;5.406;2022-12-16T10:41:17;78.88;;;37.95;;
69900;SDS011;57183;50.930;5.406;2022-12-16T10:44:03;81.07;;;37.65;;
69900;SDS011;57183;50.930;5.406;2022-12-16T10:47:06;76.15;;;37.30;;
69900;SDS011;57183;50.930;5.406;2022-12-16T10:49:52;88.00;;;39.80;;
69900;SDS011;57183;50.930;5.406;2022-12-16T10:53:13;57.88;;;28.73;;
69900;SDS011;57183;50.930;5.406;2022-12-16T10:59:23;66.32;;;30.23;;
69900;SDS011;57183;50.930;5.406;2022-12-16T11:02:17;94.13;;;39.58;;
69900;SDS011;57183;50.930;5.406;2022-12-16T11:05:49;104.80;;;40.95;;
69900;SDS011;57183;50.930;5.406;2022-12-16T11:11:20;96.25;;;41.47;;
69900;SDS011;57183;50.930;5.406;2022-12-16T11:14:50;97.28;;;41.22;;
69900;SDS011;57183;50.930;5.406;2022-12-16T11:17:24;84.28;;;41.55;;
69900;SDS011;57183;50.930;5.406;2022-12-16T11:23:44;91.35;;;39.22;;
69900;SDS011;57183;50.930;5.406;2022-12-16T11:26:05;86.18;;;39.67;;
69900;SDS011;57183;50.930;5.406;2022-12-16T11:35:08;101.10;;;40.22;;
69900;SDS011;57183;50.930;5.406;2022-12-16T11:37:57;88.70;;;40.95;;
69900;SDS011;57183;50.930;5.406;2022-12-16T11:40:43;95.95;;;42.13;;
69900;SDS011;57183;50.930;5.406;2022-12-16T11:43:27;97.88;;;43.58;;
69900;SDS011;57183;50.930;5.406;2022-12-16T11:49:02;97.85;;;40.22;;
69900;SDS011;57183;50.930;5.406;2022-12-16T11:51:58;98.43;;;40.42;;
69900;SDS011;57183;50.930;5.406;2022-12-16T11:54:56;102.00;;;41.22;;
69900;SDS011;57183;50.930;5.406;2022-12-16T12:01:43;104.35;;;44.20;;
69900;SDS011;57183;50.930;5.406;2022-12-16T12:04:11;107.93;;;44.15;;
69900;SDS011;57183;50.930;5.406;2022-12-16T12:07:02;96.45;;;44.15;;
69900;SDS011;57183;50.930;5.406;2022-12-16T12:13:07;100.63;;;42.85;;
69900;SDS011;57183;50.930;5.406;2022-12-16T12:19:34;98.28;;;42.92;;
69900;SDS011;57183;50.930;5.406;2022-12-16T12:22:39;96.45;;;41.78;;
69900;SDS011;57183;50.930;5.406;2022-12-16T12:25:27;90.97;;;39.28;;
69900;SDS011;57183;50.930;5.406;2022-12-16T12:31:41;93.75;;;40.45;;
69900;SDS011;57183;50.930;5.406;2022-12-16T12:38:06;86.20;;;39.33;;
69900;SDS011;57183;50.930;5.406;2022-12-16T12:47:09;100.30;;;39.33;;
69900;SDS011;57183;50.930;5.406;2022-12-16T12:55:56;104.93;;;42.00;;
69900;SDS011;57183;50.930;5.406;2022-12-16T12:59:00;102.43;;;42.60;;
69900;SDS011;57183;50.930;5.406;2022-12-16T13:01:47;105.63;;;41.28;;
69900;SDS011;57183;50.930;5.406;2022-12-16T13:04:36;97.82;;;40.05;;
69900;SDS011;57183;50.930;5.406;2022-12-16T13:07:20;110.95;;;43.70;;
69900;SDS011;57183;50.930;5.406;2022-12-16T13:16:01;107.93;;;44.08;;
69900;SDS011;57183;50.930;5.406;2022-12-16T13:18:47;109.45;;;40.85;;
69900;SDS011;57183;50.930;5.406;2022-12-16T13:27:10;121.10;;;45.65;;
69900;SDS011;57183;50.930;5.406;2022-12-16T13:32:53;108.43;;;44.65;;
69900;SDS011;57183;50.930;5.406;2022-12-16T13:35:54;106.57;;;44.97;;
69900;SDS011;57183;50.930;5.406;2022-12-16T13:38:46;130.93;;;47.63;;
69900;SDS011;57183;50.930;5.406;2022-12-16T13:41:57;96.15;;;43.83;;
69900;SDS011;57183;50.930;5.406;2022-12-16T13:53:21;127.47;;;48.92;;
69900;SDS011;57183;50.930;5.406;2022-12-16T13:56:10;127.47;;;48.45;;
69900;SDS011;57183;50.930;5.406;2022-12-16T13:58:59;118.63;;;47.28;;
69900;SDS011;57183;50.930;5.406;2022-12-16T14:01:55;118.32;;;46.42;;
69900;SDS011;57183;50.930;5.406;2022-12-16T14:04:45;111.07;;;46.17;;
69900;SDS011;57183;50.930;5.406;2022-12-16T14:07:33;117.20;;;47.35;;
69900;SDS011;57183;50.930;5.406;2022-12-16T14:10:27;114.53;;;48.08;;
69900;SDS011;57183;50.930;5.406;2022-12-16T14:16:19;116.28;;;50.08;;
69900;SDS011;57183;50.930;5.406;2022-12-16T14:19:33;121.40;;;49.92;;
69900;SDS011;57183;50.930;5.406;2022-12-16T14:22:50;126.38;;;51.10;;
69900;SDS011;57183;50.930;5.406;2022-12-16T14:25:56;136.95;;;51.03;;
69900;SDS011;57183;50.930;5.406;2022-12-16T14:36:57;115.07;;;46.03;;
69900;SDS011;57183;50.930;5.406;2022-12-16T14:39:41;114.55;;;47.50;;
69900;SDS011;57183;50.930;5.406;2022-12-16T14:42:39;124.55;;;49.33;;
69900;SDS011;57183;50.930;5.406;2022-12-16T14:45:29;122.68;;;48.40;;
69900;SDS011;57183;50.930;5.406;2022-12-16T14:48:32;111.43;;;48.08;;
69900;SDS011;57183;50.930;5.406;2022-12-16T14:57:26;109.32;;;45.08;;
69900;SDS011;57183;50.930;5.406;2022-12-16T15:00:22;97.25;;;41.58;;
69900;SDS011;57183;50.930;5.406;2022-12-16T15:06:20;104.57;;;42.88;;
69900;SDS011;57183;50.930;5.406;2022-12-16T15:09:19;108.00;;;45.03;;
69900;SDS011;57183;50.930;5.406;2022-12-16T15:12:04;104.18;;;44.03;;
69900;SDS011;57183;50.930;5.406;2022-12-16T15:14:50;102.75;;;42.85;;
69900;SDS011;57183;50.930;5.406;2022-12-16T15:17:50;96.40;;;42.90;;
69900;SDS011;57183;50.930;5.406;2022-12-16T15:20:40;100.50;;;43.35;;
69900;SDS011;57183;50.930;5.406;2022-12-16T15:23:33;101.45;;;40.88;;
69900;SDS011;57183;50.930;5.406;2022-12-16T15:26:22;101.60;;;41.40;;
69900;SDS011;57183;50.930;5.406;2022-12-16T15:35:10;91.35;;;38.78;;
69900;SDS011;57183;50.930;5.406;2022-12-16T15:40:59;89.22;;;39.92;;
69900;SDS011;57183;50.930;5.406;2022-12-16T15:43:45;94.60;;;39.85;;
69900;SDS011;57183;50.930;5.406;2022-12-16T15:46:30;95.50;;;42.65;;
69900;SDS011;57183;50.930;5.406;2022-12-16T15:52:32;100.00;;;40.30;;
69900;SDS011;57183;50.930;5.406;2022-12-16T15:55:30;103.18;;;42.35;;
69900;SDS011;57183;50.930;5.406;2022-12-16T16:01:12;96.82;;;42.63;;
69900;SDS011;57183;50.930;5.406;2022-12-16T16:03:58;113.30;;;46.03;;
69900;SDS011;57183;50.930;5.406;2022-12-16T16:06:47;85.20;;;34.73;;
69900;SDS011;57183;50.930;5.406;2022-12-16T16:09:35;110.45;;;44.03;;
69900;SDS011;57183;50.930;5.406;2022-12-16T16:12:20;102.75;;;41.42;;
69900;SDS011;57183;50.930;5.406;2022-12-16T16:15:07;111.15;;;43.08;;
69900;SDS011;57183;50.930;5.406;2022-12-16T16:17:54;97.93;;;43.15;;
69900;SDS011;57183;50.930;5.406;2022-12-16T16:20:46;106.43;;;42.10;;
69900;SDS011;57183;50.930;5.406;2022-12-16T16:23:31;75.45;;;31.75;;
69900;SDS011;57183;50.930;5.406;2022-12-16T16:26:16;103.43;;;42.27;;
69900;SDS011;57183;50.930;5.406;2022-12-16T16:29:02;95.55;;;41.40;;
69900;SDS011;57183;50.930;5.406;2022-12-16T16:31:46;100.67;;;44.77;;
69900;SDS011;57183;50.930;5.406;2022-12-16T16:34:31;87.38;;;38.13;;
69900;SDS011;57183;50.930;5.406;2022-12-16T16:37:16;63.95;;;28.45;;
69900;SDS011;57183;50.930;5.406;2022-12-16T16:40:30;92.57;;;40.20;;
69900;SDS011;57183;50.930;5.406;2022-12-16T16:43:22;98.35;;;41.47;;
69900;SDS011;57183;50.930;5.406;2022-12-16T16:49:12;89.65;;;41.58;;
69900;SDS011;57183;50.930;5.406;2022-12-16T16:52:20;90.47;;;39.63;;
69900;SDS011;57183;50.930;5.406;2022-12-16T16:55:06;103.85;;;41.97;;
69900;SDS011;57183;50.930;5.406;2022-12-16T16:57:56;95.82;;;40.63;;
69900;SDS011;57183;50.930;5.406;2022-12-16T17:00:40;101.00;;;43.85;;
69900;SDS011;57183;50.930;5.406;2022-12-16T17:03:24;101.72;;;45.63;;
69900;SDS011;57183;50.930;5.406;2022-12-16T17:06:08;103.78;;;45.70;;
69900;SDS011;57183;50.930;5.406;2022-12-16T17:08:52;98.18;;;45.30;;
69900;SDS011;57183;50.930;5.406;2022-12-16T17:11:36;114.80;;;48.17;;
69900;SDS011;57183;50.930;5.406;2022-12-16T17:14:21;91.85;;;44.42;;
69900;SDS011;57183;50.930;5.406;2022-12-16T17:17:05;95.68;;;43.10;;
69900;SDS011;57183;50.930;5.406;2022-12-16T17:19:50;97.80;;;42.77;;
69900;SDS011;57183;50.930;5.406;2022-12-16T17:22:35;84.37;;;41.87;;
69900;SDS011;57183;50.930;5.406;2022-12-16T17:25:19;94.50;;;41.47;;
69900;SDS011;57183;50.930;5.406;2022-12-16T17:28:04;91.13;;;41.13;;
69900;SDS011;57183;50.930;5.406;2022-12-16T17:30:48;66.55;;;31.13;;
69900;SDS011;57183;50.930;5.406;2022-12-16T17:33:33;81.75;;;41.03;;
69900;SDS011;57183;50.930;5.406;2022-12-16T17:36:17;90.40;;;42.25;;
69900;SDS011;57183;50.930;5.406;2022-12-16T17:39:02;90.68;;;41.08;;
69900;SDS011;57183;50.930;5.406;2022-12-16T17:41:47;98.72;;;39.85;;
69900;SDS011;57183;50.930;5.406;2022-12-16T17:44:32;88.23;;;41.80;;
69900;SDS011;57183;50.930;5.406;2022-12-16T17:47:16;84.63;;;41.58;;
69900;SDS011;57183;50.930;5.406;2022-12-16T17:50:00;88.75;;;40.05;;
69900;SDS011;57183;50.930;5.406;2022-12-16T17:52:45;94.00;;;42.80;;
69900;SDS011;57183;50.930;5.406;2022-12-16T17:55:40;92.03;;;40.80;;
69900;SDS011;57183;50.930;5.406;2022-12-16T17:58:30;90.57;;;40.50;;
69900;SDS011;57183;50.930;5.406;2022-12-16T18:01:16;85.90;;;40.03;;
69900;SDS011;57183;50.930;5.406;2022-12-16T18:04:01;82.45;;;38.17;;
69900;SDS011;57183;50.930;5.406;2022-12-16T18:06:45;91.55;;;39.42;;
69900;SDS011;57183;50.930;5.406;2022-12-16T18:09:29;88.63;;;40.23;;
69900;SDS011;57183;50.930;5.406;2022-12-16T18:12:13;94.20;;;40.00;;
69900;SDS011;57183;50.930;5.406;2022-12-16T18:14:58;85.23;;;39.57;;
69900;SDS011;57183;50.930;5.406;2022-12-16T18:17:42;85.72;;;39.58;;
69900;SDS011;57183;50.930;5.406;2022-12-16T18:20:26;85.78;;;41.20;;
69900;SDS011;57183;50.930;5.406;2022-12-16T18:23:10;89.63;;;39.53;;
69900;SDS011;57183;50.930;5.406;2022-12-16T18:26:01;76.90;;;37.85;;
69900;SDS011;57183;50.930;5.406;2022-12-16T18:28:47;91.40;;;41.55;;
69900;SDS011;57183;50.930;5.406;2022-12-16T18:31:31;95.05;;;42.20;;